Detroit, Michigan
Traffic Map
Current Weather Conditions
Detroit, Michigan
Overcast Light Rain
Overcast
50°
Feels Like: 50°
Wind Chill: 50° Ceiling: 6100
Heat Index: 50° Visibility: 8mi
Dew Point: 43° Wind: 18mph
Humidity: 76% Direction: 110° (ESE)
Pressure: 29.62in Gusts: 26mph
Raw Report DataCYQG 200045Z 11016G23KT 8SM -RA OVC061 10/06 A2962 RMK SC8 SLP033
Traffic Incident Summary
Active as of:
Severity:
Category:
InformationThere was an issue retrieving the traffic information for this location. Please try a different location or try again shortly.
Advertisements
Track Severe Weather on mobile